x

Edisto - 41 Nm Southeast Of Charleston, Sc (41004) Wave Buoy

7:00pm - Sun 20th Apr 2014 All times are EDT. -4 hours from GMT.

  • Sig Wave height 9.5ft
  • Peak Period 6s
  • Wind
    34mph, 38mph gusts
  • Sea Temp 68°f
  • Air Temp 60°f
  • Sea Pressure 1016.7mb
  • Edisto - 41 Nm Southeast Of Charleston, Sc
  • Edisto - 41 Nm Southeast Of Charleston, Sc

More Historic Weather Station data

Upgrade to MSW Pro to gain access to the past 30 days of data for over 8000 Wavebouys and Weather Stations around the globe.

Join Pro

Comparision Forecast

View Surf forecast
   
Sun 04/20 7:00pm 9.5ft 6s 34 38 mph 1016.7mb 68f 60f
6:00pm 9ft 6s 29 34 mph 1017mb 68f 60f
5:00pm 9.5ft 8s 31 38 mph 1016.5mb 68f 60f
4:00pm 10ft 7s 29 36 mph 1016.8mb 69f 60f
3:00pm  -   -  31 36 mph 1016.7mb 69f 60f
2:00pm 10ft 7s 31 38 mph 1016.5mb 69f 60f
1:00pm 10ft 9s 31 36 mph 1016.3mb 69f 61f
12:00pm 9ft 7s 31 38 mph 1016.2mb 69f 60f
11:00am 9.5ft 9s 29 36 mph 1016.5mb 69f 60f
10:00am 10ft 7s 34 40 mph 1016mb 68f 60f
9:00am 10ft 8s 36 43 mph 1014.8mb 68f 61f
8:00am 9.5ft 8s 36 43 mph 1014.7mb 68f 61f
7:00am 10ft 8s 34 43 mph 1014.6mb 68f 61f
6:00am 10ft 8s 36 40 mph 1014mb 68f 61f
5:00am 10.5ft 8s 31 40 mph 1013.7mb 67f 62f
4:00am 11ft 8s 31 38 mph 1013.6mb 67f 62f
3:00am 10.5ft 8s 31 36 mph 1014mb 67f 61f
2:00am 10ft 8s 29 36 mph 1014.3mb 67f 61f
1:00am 12ft 8s 31 38 mph 1014.5mb 67f 61f
12:00am 11ft 8s 29 36 mph 1014.9mb 67f 61f
Sat 04/19 11:00pm  -   -  34 40 mph 1014.5mb 67f 61f
10:00pm 10.5ft 8s 34 40 mph 1013.8mb 66f 61f
9:00pm 9.5ft 7s 31 38 mph 1014mb 66f 61f
8:00pm 10.5ft 7s 31 38 mph 1013.1mb 66f 62f
7:00pm 10.5ft 7s 31 38 mph 1013.1mb 66f 62f
6:00pm 8.5ft 7s 29 36 mph 1013.7mb 66f 62f
5:00pm 8.5ft 6s 31 38 mph 1013.5mb 66f 62f
4:00pm 8ft 7s 29 36 mph 1013.6mb 67f 62f
3:00pm 8ft 6s 29 36 mph 1013mb 66f 62f
2:00pm 7ft 5s 25 29 mph 1014mb 67f 63f
1:00pm 7ft 7s 25 31 mph 1013.3mb 66f 63f
12:00pm 6.5ft 8s 22 27 mph 1014mb 67f 64f
11:00am 6ft 8s 20 25 mph 1013.9mb 67f 65f
10:00am 7ft 7s 16 20 mph 1013.8mb 67f 66f
9:00am 7ft 8s 9 11 mph 1013.4mb 67f 67f
8:00am 8ft 7s 7 9 mph 1013mb 66f 68f
7:00am 8ft 7s 7 9 mph 1012.7mb 66f 67f
6:00am 8.5ft 8s 9 11 mph 1013.5mb 66f 66f
5:00am 9.5ft 8s 11 13 mph 1013.9mb 66f 65f
4:00am 9ft 8s 9 16 mph 1014.6mb 67f 64f
3:00am  -   -  18 25 mph 1014mb 67f 67f
2:00am 10ft 8s 11 13 mph 1013.8mb 67f 71f
1:00am 10.5ft 8s 18 22 mph 1014.4mb 67f 71f
12:00am  -   -  20
mph
1014.9mb 67f 71f
Fri 04/18 11:00pm 9.5ft 7s 20 22 mph 1015.5mb 67f 71f
10:00pm 8.5ft 7s 16 20 mph 1016.4mb 67f 70f
9:00pm 8ft 7s 16 20 mph 1017.3mb 67f 68f
8:00pm 8.5ft 7s 27 34 mph 1016.8mb 67f 65f
7:00pm 9ft 7s 27 31 mph 1017.5mb 67f 66f
6:00pm 9ft 7s 25 34 mph 1018.7mb 67f 66f
5:00pm 10ft 7s 29 36 mph 1018.6mb 67f 65f
4:00pm 9ft 7s 31 38 mph 1018.8mb 67f 64f
3:00pm 9ft 7s 31 36 mph 1020.5mb 67f 63f
2:00pm 9ft 7s 29 36 mph 1021.7mb 67f 63f
1:00pm 8.5ft 6s 27 31 mph 1022.9mb 67f 64f
12:00pm 9ft 7s 27 34 mph 1023.7mb 67f 63f
11:00am 8ft 7s 27 31 mph 1024.1mb 67f 63f
10:00am 8ft 6s 27 34 mph 1023.9mb 67f 63f
9:00am 8.5ft 7s 27 34 mph 1024mb 67f 63f
8:00am 8ft 8s 27 34 mph 1024mb 67f 62f
7:00am 8.5ft 6s 29 34 mph 1023.7mb 67f 62f
6:00am 8ft 7s 29 34 mph 1023.3mb 67f 62f
5:00am 8ft 7s 27 31 mph 1024.1mb 67f 62f
4:00am 7ft 8s 27 31 mph 1025.1mb 67f 63f
3:00am  -   -  27 36 mph 1024.8mb 67f 64f
2:00am  -   -  25 31 mph 1025.2mb 67f 63f
1:00am 8ft 8s 25 31 mph 1026.2mb 67f 63f
12:00am  -   -  25 29 mph 1026.6mb 67f 63f
Thu 04/17 11:00pm 8ft 9s 25 29 mph 1027.2mb 67f 63f
10:00pm 8ft 6s 25 29 mph 1027.8mb 67f 63f
9:00pm  -   -  27 31 mph 1027.1mb 67f 63f
8:00pm  -   -  27 31 mph 1027mb 67f 63f
7:00pm  -   -  27
mph
1026.8mb - 63f
6:00pm  -   -  27 31 mph 1026.4mb 67f 63f
5:00pm  -   -  27 31 mph 1027.7mb 67f 62f
4:00pm 7ft 7s 25 29 mph 1028.4mb 67f 61f
3:00pm 7ft 8s 25 29 mph 1029mb 67f 60f
2:00pm 7ft 9s 25 29 mph 1029.5mb 67f 59f
1:00pm 7ft 7s 25 29 mph 1029.6mb 67f 58f
12:00pm 7ft 7s 25 29 mph 1029.6mb 67f 58f
11:00am 7.5ft 7s 22 27 mph 1030.1mb 67f 58f
10:00am 7.5ft 7s 22 29 mph 1029.7mb 67f 58f
9:00am 7.5ft 8s 25 27 mph 1028.6mb 67f 58f
8:00am 7ft 8s 25 29 mph 1028.3mb 67f 58f
7:00am 8ft 8s 25 29 mph 1027.4mb 67f 58f
6:00am  -   -  25 31 mph 1026.9mb 67f 57f
5:00am 8ft 6s 27 34 mph 1026.3mb 67f 57f
4:00am 8ft 9s 29 34 mph 1026.2mb 67f 57f
3:00am 8ft 7s 27 34 mph 1026.4mb 67f 57f
2:00am 8.5ft 8s 27 34 mph 1026.7mb 67f 57f
1:00am 9ft 8s 27 31 mph 1026.8mb 67f 57f